sensor_id;sensor_type;location;lat;lon;timestamp;P1;durP1;ratioP1;P2;durP2;ratioP2
18407;SDS011;9330;52.210;21.174;2023-09-12T00:00:41;17.17;;;15.68;;
18407;SDS011;9330;52.210;21.174;2023-09-12T00:03:07;17.42;;;15.77;;
18407;SDS011;9330;52.210;21.174;2023-09-12T00:05:34;17.85;;;16.15;;
18407;SDS011;9330;52.210;21.174;2023-09-12T00:08:01;17.33;;;15.73;;
18407;SDS011;9330;52.210;21.174;2023-09-12T00:10:28;17.50;;;15.82;;
18407;SDS011;9330;52.210;21.174;2023-09-12T00:12:57;16.85;;;15.10;;
18407;SDS011;9330;52.210;21.174;2023-09-12T00:15:25;18.02;;;16.13;;
18407;SDS011;9330;52.210;21.174;2023-09-12T00:17:52;16.95;;;15.38;;
18407;SDS011;9330;52.210;21.174;2023-09-12T00:20:19;17.05;;;15.45;;
18407;SDS011;9330;52.210;21.174;2023-09-12T00:22:46;17.35;;;15.75;;
18407;SDS011;9330;52.210;21.174;2023-09-12T00:25:12;18.35;;;16.67;;
18407;SDS011;9330;52.210;21.174;2023-09-12T00:27:39;17.00;;;15.40;;
18407;SDS011;9330;52.210;21.174;2023-09-12T00:30:08;18.55;;;16.75;;
18407;SDS011;9330;52.210;21.174;2023-09-12T00:32:35;17.92;;;16.27;;
18407;SDS011;9330;52.210;21.174;2023-09-12T00:35:02;17.92;;;16.02;;
18407;SDS011;9330;52.210;21.174;2023-09-12T00:37:29;17.63;;;15.93;;
18407;SDS011;9330;52.210;21.174;2023-09-12T00:39:56;18.27;;;16.42;;
18407;SDS011;9330;52.210;21.174;2023-09-12T00:42:24;18.20;;;16.42;;
18407;SDS011;9330;52.210;21.174;2023-09-12T00:44:51;17.95;;;16.15;;
18407;SDS011;9330;52.210;21.174;2023-09-12T00:47:20;17.90;;;16.17;;
18407;SDS011;9330;52.210;21.174;2023-09-12T00:49:48;17.23;;;15.60;;
18407;SDS011;9330;52.210;21.174;2023-09-12T00:52:16;17.40;;;15.63;;
18407;SDS011;9330;52.210;21.174;2023-09-12T00:54:44;17.55;;;15.85;;
18407;SDS011;9330;52.210;21.174;2023-09-12T00:57:10;17.30;;;15.70;;
18407;SDS011;9330;52.210;21.174;2023-09-12T00:59:37;18.15;;;16.45;;
18407;SDS011;9330;52.210;21.174;2023-09-12T01:02:04;18.58;;;16.75;;
18407;SDS011;9330;52.210;21.174;2023-09-12T01:04:33;18.80;;;17.00;;
18407;SDS011;9330;52.210;21.174;2023-09-12T01:07:02;18.80;;;16.05;;
18407;SDS011;9330;52.210;21.174;2023-09-12T01:09:29;17.75;;;15.98;;
18407;SDS011;9330;52.210;21.174;2023-09-12T01:11:55;18.17;;;16.55;;
18407;SDS011;9330;52.210;21.174;2023-09-12T01:14:22;18.20;;;16.27;;
18407;SDS011;9330;52.210;21.174;2023-09-12T01:16:49;17.48;;;15.75;;
18407;SDS011;9330;52.210;21.174;2023-09-12T01:19:16;18.05;;;16.25;;
18407;SDS011;9330;52.210;21.174;2023-09-12T01:21:55;17.98;;;16.17;;
18407;SDS011;9330;52.210;21.174;2023-09-12T01:27:35;18.23;;;16.45;;
18407;SDS011;9330;52.210;21.174;2023-09-12T01:30:05;17.40;;;15.80;;
18407;SDS011;9330;52.210;21.174;2023-09-12T01:32:33;17.63;;;15.93;;
18407;SDS011;9330;52.210;21.174;2023-09-12T01:35:01;19.02;;;17.23;;
18407;SDS011;9330;52.210;21.174;2023-09-12T01:37:29;17.52;;;15.68;;
18407;SDS011;9330;52.210;21.174;2023-09-12T01:39:56;17.33;;;15.60;;
18407;SDS011;9330;52.210;21.174;2023-09-12T01:42:23;17.65;;;15.90;;
18407;SDS011;9330;52.210;21.174;2023-09-12T01:44:55;18.70;;;16.77;;
18407;SDS011;9330;52.210;21.174;2023-09-12T01:47:23;17.98;;;16.08;;
18407;SDS011;9330;52.210;21.174;2023-09-12T01:49:51;18.20;;;16.50;;
18407;SDS011;9330;52.210;21.174;2023-09-12T01:52:20;18.98;;;17.00;;
18407;SDS011;9330;52.210;21.174;2023-09-12T01:54:48;18.30;;;16.23;;
18407;SDS011;9330;52.210;21.174;2023-09-12T01:57:16;18.67;;;16.83;;
18407;SDS011;9330;52.210;21.174;2023-09-12T01:59:45;19.50;;;17.63;;
18407;SDS011;9330;52.210;21.174;2023-09-12T02:02:14;18.40;;;16.63;;
18407;SDS011;9330;52.210;21.174;2023-09-12T02:04:41;19.60;;;17.50;;
18407;SDS011;9330;52.210;21.174;2023-09-12T02:07:10;18.98;;;17.25;;
18407;SDS011;9330;52.210;21.174;2023-09-12T02:09:36;19.45;;;17.50;;
18407;SDS011;9330;52.210;21.174;2023-09-12T02:12:03;19.10;;;17.13;;
18407;SDS011;9330;52.210;21.174;2023-09-12T02:14:30;19.48;;;17.50;;
18407;SDS011;9330;52.210;21.174;2023-09-12T02:16:57;18.60;;;16.88;;
18407;SDS011;9330;52.210;21.174;2023-09-12T02:19:25;19.35;;;17.55;;
18407;SDS011;9330;52.210;21.174;2023-09-12T02:21:52;19.75;;;17.45;;
18407;SDS011;9330;52.210;21.174;2023-09-12T02:24:19;20.05;;;18.05;;
18407;SDS011;9330;52.210;21.174;2023-09-12T02:26:47;19.77;;;17.70;;
18407;SDS011;9330;52.210;21.174;2023-09-12T02:29:13;19.77;;;17.75;;
18407;SDS011;9330;52.210;21.174;2023-09-12T02:31:40;19.75;;;17.75;;
18407;SDS011;9330;52.210;21.174;2023-09-12T02:34:07;18.52;;;16.63;;
18407;SDS011;9330;52.210;21.174;2023-09-12T02:36:35;22.33;;;18.00;;
18407;SDS011;9330;52.210;21.174;2023-09-12T02:39:02;20.55;;;18.50;;
18407;SDS011;9330;52.210;21.174;2023-09-12T02:41:29;20.05;;;17.95;;
18407;SDS011;9330;52.210;21.174;2023-09-12T02:43:56;20.42;;;18.33;;
18407;SDS011;9330;52.210;21.174;2023-09-12T02:46:22;20.05;;;18.13;;
18407;SDS011;9330;52.210;21.174;2023-09-12T02:48:49;20.13;;;18.13;;
18407;SDS011;9330;52.210;21.174;2023-09-12T02:51:16;19.33;;;17.35;;
18407;SDS011;9330;52.210;21.174;2023-09-12T02:53:44;18.63;;;16.75;;
18407;SDS011;9330;52.210;21.174;2023-09-12T02:56:11;18.95;;;17.02;;
18407;SDS011;9330;52.210;21.174;2023-09-12T02:58:38;18.75;;;16.95;;
18407;SDS011;9330;52.210;21.174;2023-09-12T03:01:05;19.30;;;17.50;;
18407;SDS011;9330;52.210;21.174;2023-09-12T03:03:32;19.70;;;17.63;;
18407;SDS011;9330;52.210;21.174;2023-09-12T03:05:59;21.00;;;17.38;;
18407;SDS011;9330;52.210;21.174;2023-09-12T03:08:27;19.75;;;17.60;;
18407;SDS011;9330;52.210;21.174;2023-09-12T03:10:56;19.38;;;17.40;;
18407;SDS011;9330;52.210;21.174;2023-09-12T03:13:24;19.10;;;17.15;;
18407;SDS011;9330;52.210;21.174;2023-09-12T03:15:51;19.77;;;17.83;;
18407;SDS011;9330;52.210;21.174;2023-09-12T03:18:18;19.85;;;17.95;;
18407;SDS011;9330;52.210;21.174;2023-09-12T03:20:45;19.02;;;17.10;;
18407;SDS011;9330;52.210;21.174;2023-09-12T03:23:12;20.38;;;18.33;;
18407;SDS011;9330;52.210;21.174;2023-09-12T03:25:39;20.10;;;18.05;;
18407;SDS011;9330;52.210;21.174;2023-09-12T03:28:07;19.70;;;17.80;;
18407;SDS011;9330;52.210;21.174;2023-09-12T03:30:34;20.77;;;18.77;;
18407;SDS011;9330;52.210;21.174;2023-09-12T03:33:02;21.58;;;19.52;;
18407;SDS011;9330;52.210;21.174;2023-09-12T03:35:30;21.00;;;18.80;;
18407;SDS011;9330;52.210;21.174;2023-09-12T03:37:58;21.38;;;19.27;;
18407;SDS011;9330;52.210;21.174;2023-09-12T03:40:25;22.50;;;19.50;;
18407;SDS011;9330;52.210;21.174;2023-09-12T03:42:54;21.52;;;19.38;;
18407;SDS011;9330;52.210;21.174;2023-09-12T03:45:22;22.35;;;20.10;;
18407;SDS011;9330;52.210;21.174;2023-09-12T03:47:49;20.92;;;18.83;;
18407;SDS011;9330;52.210;21.174;2023-09-12T03:50:16;20.65;;;18.55;;
18407;SDS011;9330;52.210;21.174;2023-09-12T03:52:42;20.88;;;18.88;;
18407;SDS011;9330;52.210;21.174;2023-09-12T03:55:09;20.33;;;18.27;;
18407;SDS011;9330;52.210;21.174;2023-09-12T03:57:36;20.42;;;18.42;;
18407;SDS011;9330;52.210;21.174;2023-09-12T04:00:03;21.67;;;19.33;;
18407;SDS011;9330;52.210;21.174;2023-09-12T04:02:32;20.73;;;18.73;;
18407;SDS011;9330;52.210;21.174;2023-09-12T04:04:59;21.50;;;19.45;;
18407;SDS011;9330;52.210;21.174;2023-09-12T04:07:26;21.02;;;18.92;;
18407;SDS011;9330;52.210;21.174;2023-09-12T04:09:53;23.38;;;20.92;;
18407;SDS011;9330;52.210;21.174;2023-09-12T04:12:19;21.80;;;19.65;;
18407;SDS011;9330;52.210;21.174;2023-09-12T04:14:49;21.23;;;19.15;;
18407;SDS011;9330;52.210;21.174;2023-09-12T04:17:16;21.55;;;19.40;;
18407;SDS011;9330;52.210;21.174;2023-09-12T04:19:44;22.23;;;19.88;;
18407;SDS011;9330;52.210;21.174;2023-09-12T04:22:11;21.63;;;19.33;;
18407;SDS011;9330;52.210;21.174;2023-09-12T04:24:37;23.52;;;21.25;;
18407;SDS011;9330;52.210;21.174;2023-09-12T04:27:04;22.67;;;20.38;;
18407;SDS011;9330;52.210;21.174;2023-09-12T04:29:32;22.20;;;19.90;;
18407;SDS011;9330;52.210;21.174;2023-09-12T04:31:59;21.23;;;19.23;;
18407;SDS011;9330;52.210;21.174;2023-09-12T04:34:27;22.77;;;20.33;;
18407;SDS011;9330;52.210;21.174;2023-09-12T04:36:55;21.90;;;19.63;;
18407;SDS011;9330;52.210;21.174;2023-09-12T04:39:22;23.77;;;21.08;;
18407;SDS011;9330;52.210;21.174;2023-09-12T04:41:49;23.38;;;21.00;;
18407;SDS011;9330;52.210;21.174;2023-09-12T04:44:16;21.98;;;19.88;;
18407;SDS011;9330;52.210;21.174;2023-09-12T04:46:42;23.23;;;20.83;;
18407;SDS011;9330;52.210;21.174;2023-09-12T04:49:09;22.92;;;20.67;;
18407;SDS011;9330;52.210;21.174;2023-09-12T04:51:36;22.45;;;20.15;;
18407;SDS011;9330;52.210;21.174;2023-09-12T04:54:04;23.73;;;21.23;;
18407;SDS011;9330;52.210;21.174;2023-09-12T04:56:31;23.33;;;21.00;;
18407;SDS011;9330;52.210;21.174;2023-09-12T04:58:58;24.20;;;21.52;;
18407;SDS011;9330;52.210;21.174;2023-09-12T05:01:25;24.23;;;21.80;;
18407;SDS011;9330;52.210;21.174;2023-09-12T05:03:52;23.45;;;21.15;;
18407;SDS011;9330;52.210;21.174;2023-09-12T05:06:19;23.65;;;21.35;;
18407;SDS011;9330;52.210;21.174;2023-09-12T05:08:45;23.15;;;20.58;;
18407;SDS011;9330;52.210;21.174;2023-09-12T05:11:13;23.83;;;21.52;;
18407;SDS011;9330;52.210;21.174;2023-09-12T05:13:40;24.00;;;21.70;;
18407;SDS011;9330;52.210;21.174;2023-09-12T05:16:07;22.63;;;20.33;;
18407;SDS011;9330;52.210;21.174;2023-09-12T05:18:34;23.83;;;21.45;;
18407;SDS011;9330;52.210;21.174;2023-09-12T05:21:01;23.73;;;21.42;;
18407;SDS011;9330;52.210;21.174;2023-09-12T05:23:27;23.75;;;21.45;;
18407;SDS011;9330;52.210;21.174;2023-09-12T05:25:54;24.50;;;22.20;;
18407;SDS011;9330;52.210;21.174;2023-09-12T05:28:22;25.30;;;22.90;;
18407;SDS011;9330;52.210;21.174;2023-09-12T05:30:49;25.10;;;22.42;;
18407;SDS011;9330;52.210;21.174;2023-09-12T05:33:16;26.27;;;23.67;;
18407;SDS011;9330;52.210;21.174;2023-09-12T05:35:43;25.90;;;23.42;;
18407;SDS011;9330;52.210;21.174;2023-09-12T05:38:10;27.45;;;24.48;;
18407;SDS011;9330;52.210;21.174;2023-09-12T05:40:37;26.92;;;24.35;;
18407;SDS011;9330;52.210;21.174;2023-09-12T05:43:04;26.70;;;24.05;;
18407;SDS011;9330;52.210;21.174;2023-09-12T05:45:32;26.75;;;24.15;;
18407;SDS011;9330;52.210;21.174;2023-09-12T05:47:59;26.80;;;24.17;;
18407;SDS011;9330;52.210;21.174;2023-09-12T05:50:28;26.73;;;24.13;;
18407;SDS011;9330;52.210;21.174;2023-09-12T05:52:55;28.55;;;25.63;;
18407;SDS011;9330;52.210;21.174;2023-09-12T05:55:21;27.40;;;24.80;;
18407;SDS011;9330;52.210;21.174;2023-09-12T05:57:49;28.52;;;25.80;;
18407;SDS011;9330;52.210;21.174;2023-09-12T06:00:17;29.15;;;26.45;;
18407;SDS011;9330;52.210;21.174;2023-09-12T06:02:46;28.77;;;25.90;;
18407;SDS011;9330;52.210;21.174;2023-09-12T06:05:14;28.35;;;25.80;;
18407;SDS011;9330;52.210;21.174;2023-09-12T06:07:41;29.52;;;26.67;;
18407;SDS011;9330;52.210;21.174;2023-09-12T06:10:08;28.02;;;25.20;;
18407;SDS011;9330;52.210;21.174;2023-09-12T06:12:35;28.55;;;25.45;;
18407;SDS011;9330;52.210;21.174;2023-09-12T06:15:02;25.75;;;23.05;;
18407;SDS011;9330;52.210;21.174;2023-09-12T06:17:29;27.38;;;23.77;;
18407;SDS011;9330;52.210;21.174;2023-09-12T06:19:57;23.02;;;20.83;;
18407;SDS011;9330;52.210;21.174;2023-09-12T06:22:24;23.40;;;21.02;;
18407;SDS011;9330;52.210;21.174;2023-09-12T06:24:51;24.85;;;22.23;;
18407;SDS011;9330;52.210;21.174;2023-09-12T06:27:20;23.75;;;21.42;;
18407;SDS011;9330;52.210;21.174;2023-09-12T06:29:47;23.20;;;20.83;;
18407;SDS011;9330;52.210;21.174;2023-09-12T06:32:14;23.33;;;20.88;;
18407;SDS011;9330;52.210;21.174;2023-09-12T06:34:42;21.83;;;19.38;;
18407;SDS011;9330;52.210;21.174;2023-09-12T06:37:10;23.02;;;20.63;;
18407;SDS011;9330;52.210;21.174;2023-09-12T06:39:37;23.45;;;20.83;;
18407;SDS011;9330;52.210;21.174;2023-09-12T06:42:04;22.95;;;20.52;;
18407;SDS011;9330;52.210;21.174;2023-09-12T06:44:31;21.55;;;19.27;;
18407;SDS011;9330;52.210;21.174;2023-09-12T06:46:58;20.65;;;18.55;;
18407;SDS011;9330;52.210;21.174;2023-09-12T06:49:25;19.55;;;17.63;;
18407;SDS011;9330;52.210;21.174;2023-09-12T06:51:52;20.95;;;18.77;;
18407;SDS011;9330;52.210;21.174;2023-09-12T06:54:20;21.30;;;19.13;;
18407;SDS011;9330;52.210;21.174;2023-09-12T06:56:46;20.35;;;18.25;;
18407;SDS011;9330;52.210;21.174;2023-09-12T06:59:14;22.05;;;19.73;;
18407;SDS011;9330;52.210;21.174;2023-09-12T07:01:41;20.60;;;18.52;;
18407;SDS011;9330;52.210;21.174;2023-09-12T07:04:08;20.05;;;18.05;;
18407;SDS011;9330;52.210;21.174;2023-09-12T07:06:35;19.63;;;17.52;;
18407;SDS011;9330;52.210;21.174;2023-09-12T07:09:02;18.40;;;16.58;;
18407;SDS011;9330;52.210;21.174;2023-09-12T07:11:31;18.80;;;17.00;;
18407;SDS011;9330;52.210;21.174;2023-09-12T07:13:58;18.65;;;16.73;;
18407;SDS011;9330;52.210;21.174;2023-09-12T07:16:24;18.40;;;16.48;;
18407;SDS011;9330;52.210;21.174;2023-09-12T07:18:52;16.55;;;14.85;;
18407;SDS011;9330;52.210;21.174;2023-09-12T07:21:18;17.27;;;15.50;;
18407;SDS011;9330;52.210;21.174;2023-09-12T07:23:47;16.45;;;14.70;;
18407;SDS011;9330;52.210;21.174;2023-09-12T07:26:14;16.85;;;14.20;;
18407;SDS011;9330;52.210;21.174;2023-09-12T07:28:42;14.98;;;13.38;;
18407;SDS011;9330;52.210;21.174;2023-09-12T07:31:09;14.52;;;13.13;;
18407;SDS011;9330;52.210;21.174;2023-09-12T07:33:36;15.13;;;13.57;;
18407;SDS011;9330;52.210;21.174;2023-09-12T07:36:03;15.68;;;13.65;;
18407;SDS011;9330;52.210;21.174;2023-09-12T07:38:30;15.35;;;13.75;;
18407;SDS011;9330;52.210;21.174;2023-09-12T07:41:00;16.10;;;14.50;;
18407;SDS011;9330;52.210;21.174;2023-09-12T07:43:28;15.65;;;13.95;;
18407;SDS011;9330;52.210;21.174;2023-09-12T07:45:56;14.90;;;13.48;;
18407;SDS011;9330;52.210;21.174;2023-09-12T07:48:24;14.40;;;12.90;;
18407;SDS011;9330;52.210;21.174;2023-09-12T07:50:51;14.38;;;12.98;;
18407;SDS011;9330;52.210;21.174;2023-09-12T07:53:18;13.00;;;11.80;;
18407;SDS011;9330;52.210;21.174;2023-09-12T07:55:45;13.30;;;11.95;;
18407;SDS011;9330;52.210;21.174;2023-09-12T07:58:12;11.93;;;10.73;;
18407;SDS011;9330;52.210;21.174;2023-09-12T08:00:39;12.07;;;10.95;;
18407;SDS011;9330;52.210;21.174;2023-09-12T08:03:08;12.65;;;10.82;;
18407;SDS011;9330;52.210;21.174;2023-09-12T08:05:35;12.63;;;11.43;;
18407;SDS011;9330;52.210;21.174;2023-09-12T08:08:03;11.52;;;10.32;;
18407;SDS011;9330;52.210;21.174;2023-09-12T08:10:30;12.85;;;10.82;;
18407;SDS011;9330;52.210;21.174;2023-09-12T08:12:57;13.05;;;10.15;;
18407;SDS011;9330;52.210;21.174;2023-09-12T08:15:24;11.65;;;9.73;;
18407;SDS011;9330;52.210;21.174;2023-09-12T08:17:51;11.52;;;10.23;;
18407;SDS011;9330;52.210;21.174;2023-09-12T08:20:19;11.88;;;10.68;;
18407;SDS011;9330;52.210;21.174;2023-09-12T08:22:46;12.07;;;10.32;;
18407;SDS011;9330;52.210;21.174;2023-09-12T08:25:14;17.42;;;10.88;;
18407;SDS011;9330;52.210;21.174;2023-09-12T08:27:41;12.13;;;10.90;;
18407;SDS011;9330;52.210;21.174;2023-09-12T08:30:09;13.43;;;10.77;;
18407;SDS011;9330;52.210;21.174;2023-09-12T08:32:37;14.65;;;11.07;;
18407;SDS011;9330;52.210;21.174;2023-09-12T08:35:08;12.00;;;10.85;;
18407;SDS011;9330;52.210;21.174;2023-09-12T08:37:36;11.73;;;10.50;;
18407;SDS011;9330;52.210;21.174;2023-09-12T08:40:04;12.20;;;10.25;;
18407;SDS011;9330;52.210;21.174;2023-09-12T08:42:32;12.13;;;10.27;;
18407;SDS011;9330;52.210;21.174;2023-09-12T08:45:05;11.50;;;10.40;;
18407;SDS011;9330;52.210;21.174;2023-09-12T08:47:37;11.73;;;10.52;;
18407;SDS011;9330;52.210;21.174;2023-09-12T08:50:07;12.25;;;11.05;;
18407;SDS011;9330;52.210;21.174;2023-09-12T08:52:38;11.13;;;9.95;;
18407;SDS011;9330;52.210;21.174;2023-09-12T08:55:06;10.70;;;9.57;;
18407;SDS011;9330;52.210;21.174;2023-09-12T08:57:34;10.13;;;8.90;;
18407;SDS011;9330;52.210;21.174;2023-09-12T09:00:02;9.77;;;8.88;;
18407;SDS011;9330;52.210;21.174;2023-09-12T09:02:31;10.55;;;9.55;;
18407;SDS011;9330;52.210;21.174;2023-09-12T09:04:59;11.50;;;9.45;;
18407;SDS011;9330;52.210;21.174;2023-09-12T09:07:30;9.65;;;8.77;;
18407;SDS011;9330;52.210;21.174;2023-09-12T09:10:02;10.02;;;9.02;;
18407;SDS011;9330;52.210;21.174;2023-09-12T09:12:30;10.43;;;9.43;;
18407;SDS011;9330;52.210;21.174;2023-09-12T09:14:58;9.45;;;8.55;;
18407;SDS011;9330;52.210;21.174;2023-09-12T09:17:25;9.23;;;8.38;;
18407;SDS011;9330;52.210;21.174;2023-09-12T09:19:52;9.77;;;8.27;;
18407;SDS011;9330;52.210;21.174;2023-09-12T09:22:20;9.38;;;7.88;;
18407;SDS011;9330;52.210;21.174;2023-09-12T09:24:48;10.35;;;7.60;;
18407;SDS011;9330;52.210;21.174;2023-09-12T09:27:22;8.70;;;7.80;;
18407;SDS011;9330;52.210;21.174;2023-09-12T09:29:59;11.02;;;8.43;;
18407;SDS011;9330;52.210;21.174;2023-09-12T09:32:26;10.77;;;8.60;;
18407;SDS011;9330;52.210;21.174;2023-09-12T09:34:53;10.25;;;8.20;;
18407;SDS011;9330;52.210;21.174;2023-09-12T09:37:20;11.75;;;8.45;;
18407;SDS011;9330;52.210;21.174;2023-09-12T09:39:47;10.15;;;7.90;;
18407;SDS011;9330;52.210;21.174;2023-09-12T09:42:17;9.63;;;7.70;;
18407;SDS011;9330;52.210;21.174;2023-09-12T09:44:45;9.05;;;8.07;;
18407;SDS011;9330;52.210;21.174;2023-09-12T09:47:12;8.25;;;7.40;;
18407;SDS011;9330;52.210;21.174;2023-09-12T09:49:39;9.30;;;8.35;;
18407;SDS011;9330;52.210;21.174;2023-09-12T09:52:06;8.23;;;7.40;;
18407;SDS011;9330;52.210;21.174;2023-09-12T09:54:33;9.50;;;7.75;;
18407;SDS011;9330;52.210;21.174;2023-09-12T09:57:00;9.23;;;8.07;;
18407;SDS011;9330;52.210;21.174;2023-09-12T09:59:28;8.02;;;7.18;;
18407;SDS011;9330;52.210;21.174;2023-09-12T10:01:57;7.60;;;6.88;;
18407;SDS011;9330;52.210;21.174;2023-09-12T10:04:26;8.52;;;7.70;;
18407;SDS011;9330;52.210;21.174;2023-09-12T10:06:55;9.93;;;7.13;;
18407;SDS011;9330;52.210;21.174;2023-09-12T10:09:25;7.70;;;7.00;;
18407;SDS011;9330;52.210;21.174;2023-09-12T10:11:52;8.57;;;7.68;;
18407;SDS011;9330;52.210;21.174;2023-09-12T10:14:22;11.40;;;7.70;;
18407;SDS011;9330;52.210;21.174;2023-09-12T10:16:50;9.23;;;7.63;;
18407;SDS011;9330;52.210;21.174;2023-09-12T10:19:24;8.48;;;7.63;;
18407;SDS011;9330;52.210;21.174;2023-09-12T10:21:54;8.30;;;7.45;;
18407;SDS011;9330;52.210;21.174;2023-09-12T10:24:29;8.10;;;7.30;;
18407;SDS011;9330;52.210;21.174;2023-09-12T10:26:57;7.72;;;6.93;;
18407;SDS011;9330;52.210;21.174;2023-09-12T10:29:26;8.23;;;7.43;;
18407;SDS011;9330;52.210;21.174;2023-09-12T10:31:53;8.68;;;7.50;;
18407;SDS011;9330;52.210;21.174;2023-09-12T10:34:20;8.82;;;7.55;;
18407;SDS011;9330;52.210;21.174;2023-09-12T10:36:51;8.57;;;7.78;;
18407;SDS011;9330;52.210;21.174;2023-09-12T10:39:21;8.48;;;7.63;;
18407;SDS011;9330;52.210;21.174;2023-09-12T10:41:50;11.43;;;7.65;;
18407;SDS011;9330;52.210;21.174;2023-09-12T10:44:20;9.07;;;8.18;;
18407;SDS011;9330;52.210;21.174;2023-09-12T10:46:47;8.75;;;8.00;;
18407;SDS011;9330;52.210;21.174;2023-09-12T10:49:15;10.57;;;7.75;;
18407;SDS011;9330;52.210;21.174;2023-09-12T10:51:42;9.05;;;8.05;;
18407;SDS011;9330;52.210;21.174;2023-09-12T10:54:12;8.63;;;7.93;;
18407;SDS011;9330;52.210;21.174;2023-09-12T10:56:40;10.60;;;9.60;;
18407;SDS011;9330;52.210;21.174;2023-09-12T10:59:10;9.18;;;8.38;;
18407;SDS011;9330;52.210;21.174;2023-09-12T11:01:38;8.88;;;8.13;;
18407;SDS011;9330;52.210;21.174;2023-09-12T11:04:29;9.20;;;8.40;;
18407;SDS011;9330;52.210;21.174;2023-09-12T11:07:00;9.90;;;8.90;;
18407;SDS011;9330;52.210;21.174;2023-09-12T11:09:28;8.88;;;8.05;;
18407;SDS011;9330;52.210;21.174;2023-09-12T11:11:56;9.23;;;8.45;;
18407;SDS011;9330;52.210;21.174;2023-09-12T11:14:25;9.18;;;8.38;;
18407;SDS011;9330;52.210;21.174;2023-09-12T11:19:48;9.30;;;8.40;;
18407;SDS011;9330;52.210;21.174;2023-09-12T11:22:20;9.90;;;8.80;;
18407;SDS011;9330;52.210;21.174;2023-09-12T11:24:50;8.95;;;7.97;;
18407;SDS011;9330;52.210;21.174;2023-09-12T11:27:17;9.85;;;8.05;;
18407;SDS011;9330;52.210;21.174;2023-09-12T11:29:43;9.15;;;8.10;;
18407;SDS011;9330;52.210;21.174;2023-09-12T11:32:11;9.57;;;8.55;;
18407;SDS011;9330;52.210;21.174;2023-09-12T11:34:53;9.80;;;8.80;;
18407;SDS011;9330;52.210;21.174;2023-09-12T11:37:23;9.93;;;8.95;;
18407;SDS011;9330;52.210;21.174;2023-09-12T11:39:52;11.15;;;10.05;;
18407;SDS011;9330;52.210;21.174;2023-09-12T11:42:20;10.85;;;10.00;;
18407;SDS011;9330;52.210;21.174;2023-09-12T11:44:48;9.98;;;9.07;;
18407;SDS011;9330;52.210;21.174;2023-09-12T11:47:16;10.60;;;9.60;;
18407;SDS011;9330;52.210;21.174;2023-09-12T11:49:43;9.45;;;8.55;;
18407;SDS011;9330;52.210;21.174;2023-09-12T11:52:10;9.85;;;8.98;;
18407;SDS011;9330;52.210;21.174;2023-09-12T11:54:38;9.50;;;8.70;;
18407;SDS011;9330;52.210;21.174;2023-09-12T11:57:08;9.50;;;8.65;;
18407;SDS011;9330;52.210;21.174;2023-09-12T11:59:42;9.43;;;8.63;;
18407;SDS011;9330;52.210;21.174;2023-09-12T12:02:13;9.90;;;9.00;;
18407;SDS011;9330;52.210;21.174;2023-09-12T12:04:41;9.13;;;8.23;;
18407;SDS011;9330;52.210;21.174;2023-09-12T12:07:10;8.90;;;8.10;;
18407;SDS011;9330;52.210;21.174;2023-09-12T12:09:37;9.98;;;8.98;;
18407;SDS011;9330;52.210;21.174;2023-09-12T12:12:08;10.13;;;8.73;;
18407;SDS011;9330;52.210;21.174;2023-09-12T12:14:38;10.75;;;9.35;;
18407;SDS011;9330;52.210;21.174;2023-09-12T12:17:06;10.02;;;7.97;;
18407;SDS011;9330;52.210;21.174;2023-09-12T12:19:34;10.45;;;8.10;;
18407;SDS011;9330;52.210;21.174;2023-09-12T12:22:02;8.75;;;7.95;;
18407;SDS011;9330;52.210;21.174;2023-09-12T12:24:36;8.77;;;8.07;;
18407;SDS011;9330;52.210;21.174;2023-09-12T12:27:04;8.77;;;7.97;;
18407;SDS011;9330;52.210;21.174;2023-09-12T12:29:34;8.40;;;7.70;;
18407;SDS011;9330;52.210;21.174;2023-09-12T12:32:01;8.80;;;8.00;;
18407;SDS011;9330;52.210;21.174;2023-09-12T12:34:30;8.57;;;7.88;;
18407;SDS011;9330;52.210;21.174;2023-09-12T12:36:57;8.50;;;7.60;;
18407;SDS011;9330;52.210;21.174;2023-09-12T12:39:24;8.55;;;7.85;;
18407;SDS011;9330;52.210;21.174;2023-09-12T12:41:51;8.88;;;8.18;;
18407;SDS011;9330;52.210;21.174;2023-09-12T12:44:19;9.25;;;8.35;;
18407;SDS011;9330;52.210;21.174;2023-09-12T12:46:52;9.68;;;8.35;;
18407;SDS011;9330;52.210;21.174;2023-09-12T12:49:20;8.48;;;7.78;;
18407;SDS011;9330;52.210;21.174;2023-09-12T12:51:48;9.00;;;8.13;;
18407;SDS011;9330;52.210;21.174;2023-09-12T12:54:15;8.35;;;7.63;;
18407;SDS011;9330;52.210;21.174;2023-09-12T12:56:42;8.10;;;7.30;;
18407;SDS011;9330;52.210;21.174;2023-09-12T12:59:10;7.90;;;7.25;;
18407;SDS011;9330;52.210;21.174;2023-09-12T13:01:38;9.23;;;8.30;;
18407;SDS011;9330;52.210;21.174;2023-09-12T13:04:06;8.32;;;7.63;;
18407;SDS011;9330;52.210;21.174;2023-09-12T13:06:34;8.77;;;7.85;;
18407;SDS011;9330;52.210;21.174;2023-09-12T13:09:03;9.25;;;8.32;;
18407;SDS011;9330;52.210;21.174;2023-09-12T13:11:30;8.88;;;8.18;;
18407;SDS011;9330;52.210;21.174;2023-09-12T13:13:59;9.35;;;8.50;;
18407;SDS011;9330;52.210;21.174;2023-09-12T13:16:33;9.48;;;7.88;;
18407;SDS011;9330;52.210;21.174;2023-09-12T13:19:00;10.23;;;8.95;;
18407;SDS011;9330;52.210;21.174;2023-09-12T13:21:29;8.80;;;8.02;;
18407;SDS011;9330;52.210;21.174;2023-09-12T13:23:57;9.52;;;8.63;;
18407;SDS011;9330;52.210;21.174;2023-09-12T13:26:24;9.43;;;8.55;;
18407;SDS011;9330;52.210;21.174;2023-09-12T13:28:51;10.23;;;9.32;;
18407;SDS011;9330;52.210;21.174;2023-09-12T13:31:18;9.50;;;8.70;;
18407;SDS011;9330;52.210;21.174;2023-09-12T13:33:44;10.45;;;9.55;;
18407;SDS011;9330;52.210;21.174;2023-09-12T13:36:11;9.82;;;9.02;;
18407;SDS011;9330;52.210;21.174;2023-09-12T13:38:39;10.00;;;9.10;;
18407;SDS011;9330;52.210;21.174;2023-09-12T13:41:06;9.35;;;8.57;;
18407;SDS011;9330;52.210;21.174;2023-09-12T13:43:33;9.63;;;8.82;;
18407;SDS011;9330;52.210;21.174;2023-09-12T13:46:00;9.73;;;8.68;;
18407;SDS011;9330;52.210;21.174;2023-09-12T13:48:27;9.75;;;8.93;;
18407;SDS011;9330;52.210;21.174;2023-09-12T13:50:54;14.57;;;8.98;;
18407;SDS011;9330;52.210;21.174;2023-09-12T13:53:21;9.82;;;9.02;;
18407;SDS011;9330;52.210;21.174;2023-09-12T13:55:49;9.85;;;9.05;;
18407;SDS011;9330;52.210;21.174;2023-09-12T13:58:16;9.75;;;8.85;;
18407;SDS011;9330;52.210;21.174;2023-09-12T14:00:43;9.98;;;9.05;;
18407;SDS011;9330;52.210;21.174;2023-09-12T14:03:10;10.07;;;9.18;;
18407;SDS011;9330;52.210;21.174;2023-09-12T14:05:37;10.25;;;9.32;;
18407;SDS011;9330;52.210;21.174;2023-09-12T14:08:04;10.77;;;9.73;;
18407;SDS011;9330;52.210;21.174;2023-09-12T14:10:31;10.20;;;9.30;;
18407;SDS011;9330;52.210;21.174;2023-09-12T14:12:59;10.45;;;9.45;;
18407;SDS011;9330;52.210;21.174;2023-09-12T14:15:26;10.10;;;8.68;;
18407;SDS011;9330;52.210;21.174;2023-09-12T14:17:53;10.85;;;9.55;;
18407;SDS011;9330;52.210;21.174;2023-09-12T14:20:19;10.35;;;9.45;;
18407;SDS011;9330;52.210;21.174;2023-09-12T14:22:46;10.25;;;9.35;;
18407;SDS011;9330;52.210;21.174;2023-09-12T14:25:13;9.90;;;9.02;;
18407;SDS011;9330;52.210;21.174;2023-09-12T14:27:41;10.95;;;9.80;;
18407;SDS011;9330;52.210;21.174;2023-09-12T14:30:11;10.73;;;9.80;;
18407;SDS011;9330;52.210;21.174;2023-09-12T14:32:38;10.77;;;9.70;;
18407;SDS011;9330;52.210;21.174;2023-09-12T14:35:08;12.60;;;10.05;;
18407;SDS011;9330;52.210;21.174;2023-09-12T14:37:35;11.05;;;9.98;;
18407;SDS011;9330;52.210;21.174;2023-09-12T14:40:03;10.88;;;9.88;;